Time;durP1;ratioP1;P1;durP2;ratioP2;P2;SDS_P1;SDS_P2;PMS_P1;PMS_P2;Temp;Humidity;BMP_temperature;BMP_pressure;BME280_temperature;BME280_humidity;BME280_pressure;Samples;Min_cycle;Max_cycle;Signal;HPM_P1;HPM_P2
2022/04/12 00:00:06;;;;;;;13.20;8.28;;;;;;;-0.14;72.61;98067.45;1691545;84;21469;-75
2022/04/12 00:02:42;;;;;;;16.00;8.68;;;;;;;-0.19;72.73;98070.02;1693664;83;21091;-74
2022/04/12 00:05:11;;;;;;;13.15;7.97;;;;;;;-0.22;72.97;98069.06;1715321;83;21059;-74
2022/04/12 00:07:43;;;;;;;13.88;8.13;;;;;;;-0.23;73.09;98073.42;1713703;84;21092;-75
2022/04/12 00:10:12;;;;;;;15.03;8.55;;;;;;;-0.23;73.06;98076.44;1713896;84;21016;-76
2022/04/12 00:12:40;;;;;;;12.93;8.20;;;;;;;-0.24;73.01;98072.98;1711228;83;21473;-75
2022/04/12 00:15:09;;;;;;;15.63;9.00;;;;;;;-0.26;73.18;98065.55;1686256;85;20981;-75
2022/04/12 00:20:28;;;;;;;11.65;8.30;;;;;;;-0.25;73.18;98067.73;1686651;85;21063;-74
2022/04/12 00:22:53;;;;;;;16.73;9.63;;;;;;;-0.28;73.25;98063.36;1709752;84;20981;-75
2022/04/12 00:25:22;;;;;;;11.25;6.75;;;;;;;-0.28;73.34;98065.97;1715207;83;21004;-75
2022/04/12 00:27:50;;;;;;;12.65;8.10;;;;;;;-0.30;73.22;98063.74;1715151;83;21057;-75
2022/04/12 00:30:21;;;;;;;13.68;7.75;;;;;;;-0.37;73.29;98067.13;1713532;84;20997;-75
2022/04/12 00:32:50;;;;;;;14.90;8.13;;;;;;;-0.37;73.17;98067.13;1691775;84;21048;-75
2022/04/12 00:35:18;;;;;;;13.93;8.03;;;;;;;-0.41;73.22;98061.00;1686135;85;20981;-75
2022/04/12 00:37:46;;;;;;;13.78;8.70;;;;;;;-0.47;73.41;98059.58;1686726;85;21060;-75
2022/04/12 00:40:17;;;;;;;12.73;8.38;;;;;;;-0.50;73.34;98064.31;1686575;85;21080;-75
2022/04/12 00:42:42;;;;;;;12.88;7.53;;;;;;;-0.54;73.55;98063.84;1688211;84;21080;-75
2022/04/12 00:45:10;;;;;;;17.23;7.83;;;;;;;-0.56;73.53;98059.02;1686847;85;21072;-75
2022/04/12 00:47:39;;;;;;;12.88;7.97;;;;;;;-0.60;73.53;98063.30;1686609;85;21082;-75
2022/04/12 00:50:09;;;;;;;12.53;8.00;;;;;;;-0.63;73.60;98064.99;1686569;85;20984;-75
2022/04/12 00:52:40;;;;;;;15.32;8.08;;;;;;;-0.69;73.61;98061.44;1707008;84;21040;-75
2022/04/12 00:55:08;;;;;;;12.35;8.38;;;;;;;-0.72;73.71;98052.27;1714955;83;21488;-75
2022/04/12 00:57:36;;;;;;;13.35;7.60;;;;;;;-0.73;73.81;98063.53;1715180;84;21017;-75
2022/04/12 01:00:07;;;;;;;12.20;7.95;;;;;;;-0.77;73.88;98066.04;1715244;84;21039;-75
2022/04/12 01:02:36;;;;;;;11.20;7.10;;;;;;;-0.78;74.17;98068.20;1695215;83;21063;-76
2022/04/12 01:05:04;;;;;;;14.10;7.40;;;;;;;-0.80;73.99;98066.87;1689476;84;21051;-75
2022/04/12 01:07:32;;;;;;;11.05;6.60;;;;;;;-0.84;73.96;98066.36;1691661;85;21020;-76
2022/04/12 01:10:00;;;;;;;12.28;6.85;;;;;;;-0.89;74.08;98061.50;1700439;83;21001;-76
2022/04/12 01:12:28;;;;;;;11.08;6.55;;;;;;;-0.90;74.12;98068.86;1720312;83;21001;-76
2022/04/12 01:15:16;;;;;;;12.37;6.67;;;;;;;-0.92;74.12;98062.77;1720291;83;21413;-75
2022/04/12 01:17:44;;;;;;;8.48;5.90;;;;;;;-0.92;74.17;98066.67;1720376;83;21432;-75
2022/04/12 01:20:14;;;;;;;11.45;6.83;;;;;;;-0.97;74.33;98063.56;1709382;83;20980;-75
2022/04/12 01:23:00;;;;;;;12.00;6.80;;;;;;;-0.96;74.44;98065.30;1691537;85;21429;-75
2022/04/12 01:25:27;;;;;;;16.62;7.20;;;;;;;-0.97;74.33;98063.56;1674409;85;21024;-75
2022/04/12 01:27:54;;;;;;;11.05;6.67;;;;;;;-0.97;74.30;98062.67;1692834;83;20996;-75
2022/04/12 01:30:21;;;;;;;9.53;6.15;;;;;;;-0.96;74.17;98070.51;1691182;84;21470;-75
2022/04/12 01:32:48;;;;;;;13.90;6.78;;;;;;;-0.99;74.75;98063.94;1691672;84;20960;-75
2022/04/12 01:35:14;;;;;;;9.48;5.70;;;;;;;-0.97;74.68;98067.88;1691558;85;21465;-75
2022/04/12 01:37:41;;;;;;;9.33;5.65;;;;;;;-0.97;74.56;98063.97;1691988;83;20992;-74
2022/04/12 01:40:09;;;;;;;12.50;6.08;;;;;;;-0.99;74.44;98066.98;1720437;83;21016;-74
2022/04/12 01:42:39;;;;;;;11.10;6.10;;;;;;;-0.99;74.66;98060.48;1720275;83;21065;-75
2022/04/12 01:45:08;;;;;;;12.03;6.28;;;;;;;-0.97;74.82;98054.45;1720280;83;20965;-74
2022/04/12 01:47:37;;;;;;;9.93;5.97;;;;;;;-0.94;74.86;98054.93;1720273;83;21489;-74
2022/04/12 01:50:08;;;;;;;11.95;6.00;;;;;;;-0.90;75.16;98056.73;1691938;83;21000;-75
2022/04/12 01:52:35;;;;;;;11.85;5.45;;;;;;;-0.87;75.37;98059.38;1691459;85;21501;-75
2022/04/12 01:55:03;;;;;;;8.75;5.25;;;;;;;-0.83;74.88;98061.19;1691625;84;21048;-75
2022/04/12 01:57:30;;;;;;;7.72;4.85;;;;;;;-0.80;74.82;98058.64;1709009;83;21020;-74
2022/04/12 01:59:58;;;;;;;8.35;5.30;;;;;;;-0.77;75.44;98058.23;1720182;83;21454;-75
2022/04/12 02:02:25;;;;;;;10.98;5.85;;;;;;;-0.74;75.06;98057.88;1720337;83;21059;-74
2022/04/12 02:04:51;;;;;;;13.08;6.05;;;;;;;-0.72;74.70;98056.58;1722639;83;20977;-75
2022/04/12 02:07:18;;;;;;;10.25;6.03;;;;;;;-0.74;74.74;98055.70;1710746;83;20988;-74
2022/04/12 02:09:45;;;;;;;10.32;6.08;;;;;;;-0.71;74.50;98050.55;1697017;84;21024;-75
2022/04/12 02:12:11;;;;;;;10.60;6.03;;;;;;;-0.71;74.74;98047.50;1697015;84;21012;-74
2022/04/12 02:14:38;;;;;;;10.48;6.12;;;;;;;-0.70;74.26;98057.50;1696947;84;21027;-75
2022/04/12 02:17:04;;;;;;;10.85;6.08;;;;;;;-0.70;74.20;98058.80;1708853;83;21072;-74
2022/04/12 02:19:31;;;;;;;9.95;5.55;;;;;;;-0.70;74.18;98052.30;1725899;83;21020;-75
2022/04/12 02:21:58;;;;;;;10.13;5.58;;;;;;;-0.71;74.28;98054.02;1725945;82;20993;-75
2022/04/12 02:24:24;;;;;;;9.98;5.50;;;;;;;-0.70;74.27;98056.20;1725931;83;21000;-75
2022/04/12 02:26:50;;;;;;;9.60;5.15;;;;;;;-0.71;74.19;98058.36;1717155;82;21036;-75
2022/04/12 02:29:17;;;;;;;10.18;5.20;;;;;;;-0.72;74.07;98056.17;1702546;83;21027;-75
2022/04/12 02:31:44;;;;;;;7.53;4.67;;;;;;;-0.72;73.96;98047.47;1725766;83;21044;-76
2022/04/12 02:34:10;;;;;;;8.88;5.15;;;;;;;-0.73;74.60;98054.42;1725715;83;21060;-75
2022/04/12 02:36:37;;;;;;;8.25;5.03;;;;;;;-0.74;74.08;98052.68;1700066;83;21020;-75
2022/04/12 02:39:04;;;;;;;6.85;4.58;;;;;;;-0.74;74.29;98046.17;1697078;84;21429;-75
2022/04/12 02:41:31;;;;;;;9.58;4.92;;;;;;;-0.75;74.34;98054.80;1696942;85;20999;-75
2022/04/12 02:43:58;;;;;;;8.43;4.60;;;;;;;-0.74;74.18;98045.28;1697099;84;20997;-75
2022/04/12 02:46:24;;;;;;;9.93;5.00;;;;;;;-0.77;74.06;98047.83;1719864;83;21472;-75
2022/04/12 02:48:51;;;;;;;9.28;5.10;;;;;;;-0.82;73.93;98056.42;1725909;83;21012;-76
2022/04/12 02:51:17;;;;;;;8.03;4.60;;;;;;;-0.83;74.31;98053.83;1725914;83;21410;-76
2022/04/12 02:53:44;;;;;;;6.78;4.55;;;;;;;-0.88;74.95;98057.63;1726077;83;21036;-75
2022/04/12 02:56:13;;;;;;;6.72;4.65;;;;;;;-0.91;74.67;98058.01;1706329;83;20992;-75
2022/04/12 02:58:40;;;;;;;7.95;4.53;;;;;;;-0.91;74.74;98059.31;1699578;83;21496;-75
2022/04/12 03:01:07;;;;;;;11.40;4.80;;;;;;;-0.92;74.41;98053.22;1726017;82;20969;-75
2022/04/12 03:03:34;;;;;;;11.53;4.90;;;;;;;-0.94;74.87;98043.22;1726152;83;21071;-75
2022/04/12 03:06:01;;;;;;;8.15;4.50;;;;;;;-0.94;74.27;98053.62;1718117;83;21040;-75
2022/04/12 03:08:28;;;;;;;7.22;4.62;;;;;;;-0.99;74.55;98051.38;1714944;84;21455;-75
2022/04/12 03:10:55;;;;;;;10.00;4.47;;;;;;;-1.03;74.47;98058.67;1686705;85;21024;-75
2022/04/12 03:13:21;;;;;;;6.92;4.20;;;;;;;-1.05;74.75;98058.63;1686745;85;21458;-75
2022/04/12 03:15:48;;;;;;;8.28;5.10;;;;;;;-1.08;74.48;98059.90;1686621;85;20973;-75
2022/04/12 03:18:17;;;;;;;9.33;4.97;;;;;;;-1.07;74.27;98057.74;1714656;84;21036;-75
2022/04/12 03:20:44;;;;;;;11.70;5.17;;;;;;;-1.09;74.69;98055.11;1715375;84;21036;-75
2022/04/12 03:23:11;;;;;;;21.93;10.85;;;;;;;-1.11;75.22;98057.23;1715086;84;20993;-75
2022/04/12 03:25:39;;;;;;;8.30;5.05;;;;;;;-1.10;74.51;98048.57;1697393;83;20989;-76
2022/04/12 03:28:06;;;;;;;8.90;4.75;;;;;;;-1.12;74.92;98044.64;1692349;84;20981;-76
2022/04/12 03:30:33;;;;;;;9.63;5.10;;;;;;;-1.12;74.35;98045.94;1715291;83;21434;-76
2022/04/12 03:33:00;;;;;;;10.32;4.92;;;;;;;-1.11;74.22;98058.53;1715081;83;21047;-76
2022/04/12 03:35:26;;;;;;;11.33;4.92;;;;;;;-1.11;74.29;98053.33;1700961;84;21084;-74
2022/04/12 03:37:53;;;;;;;8.75;4.92;;;;;;;-1.08;74.45;98055.55;1686811;85;20992;-74
2022/04/12 03:40:21;;;;;;;10.53;5.17;;;;;;;-1.05;74.19;98056.03;1686689;85;21035;-76
2022/04/12 03:42:48;;;;;;;9.93;4.60;;;;;;;-1.03;74.16;98051.75;1688946;84;21024;-75
2022/04/12 03:45:15;;;;;;;9.00;4.80;;;;;;;-1.04;74.31;98059.08;1715232;83;21525;-75
2022/04/12 03:47:41;;;;;;;7.97;4.67;;;;;;;-0.99;74.19;98062.64;1715361;83;20961;-75
2022/04/12 03:50:09;;;;;;;8.65;4.90;;;;;;;-1.01;73.99;98060.45;1715298;83;21470;-75
2022/04/12 03:52:35;;;;;;;6.78;4.90;;;;;;;-1.00;74.02;98067.39;1715299;84;21052;-75
2022/04/12 03:55:04;;;;;;;8.75;4.95;;;;;;;-1.01;73.87;98072.16;1714720;84;21028;-75
2022/04/12 03:57:32;;;;;;;9.68;5.20;;;;;;;-1.04;74.10;98069.92;1715252;84;20993;-75
2022/04/12 03:59:59;;;;;;;8.40;5.20;;;;;;;-1.02;73.95;98061.30;1715128;84;21024;-75
2022/04/12 04:02:26;;;;;;;10.45;5.03;;;;;;;-1.02;73.85;98073.01;1697084;84;21100;-75
2022/04/12 04:04:53;;;;;;;12.18;4.97;;;;;;;-1.04;73.89;98068.62;1684969;85;21072;-76
2022/04/12 04:07:19;;;;;;;10.35;5.40;;;;;;;-0.99;74.33;98071.74;1684294;85;21069;-76
2022/04/12 04:09:46;;;;;;;10.20;5.67;;;;;;;-0.99;74.34;98061.78;1684770;85;21430;-76
2022/04/12 04:12:13;;;;;;;9.45;5.65;;;;;;;-1.00;74.26;98066.53;1699879;84;21064;-76
2022/04/12 04:14:42;;;;;;;11.03;6.40;;;;;;;-0.98;73.99;98065.72;1715162;84;21504;-76
2022/04/12 04:17:08;;;;;;;9.25;5.85;;;;;;;-0.98;74.27;98064.41;1715139;83;21069;-76
2022/04/12 04:19:34;;;;;;;10.55;5.67;;;;;;;-0.97;74.37;98059.66;1715098;83;21430;-76
2022/04/12 04:22:01;;;;;;;9.03;5.10;;;;;;;-0.92;74.02;98061.02;1702845;84;21024;-76
2022/04/12 04:24:28;;;;;;;8.88;5.08;;;;;;;-0.91;74.11;98072.31;1684747;85;21045;-76
2022/04/12 04:26:55;;;;;;;9.08;4.95;;;;;;;-0.86;74.13;98070.67;1684745;85;21041;-76
2022/04/12 04:29:33;;;;;;;8.55;5.00;;;;;;;-0.80;73.85;98076.86;1686037;84;21004;-76
2022/04/12 04:31:57;;;;;;;8.23;5.37;;;;;;;-0.74;73.91;98083.02;1696313;84;21083;-76
2022/04/12 04:34:24;;;;;;;11.20;6.08;;;;;;;-0.71;73.79;98085.24;1714972;83;21005;-76
2022/04/12 04:36:51;;;;;;;10.78;5.75;;;;;;;-0.65;73.47;98088.80;1709888;83;22286;-76
2022/04/12 04:39:18;;;;;;;13.65;5.30;;;;;;;-0.56;73.76;98079.84;1715036;84;21005;-76
2022/04/12 04:41:44;;;;;;;9.58;4.90;;;;;;;-0.44;73.76;98085.27;1707680;84;21557;-76
2022/04/12 04:44:11;;;;;;;9.75;5.35;;;;;;;-0.32;73.56;98086.30;1712738;84;21413;-76
2022/04/12 04:46:38;;;;;;;8.48;5.03;;;;;;;-0.23;73.42;98089.46;1714794;84;21021;-75
2022/04/12 04:49:04;;;;;;;9.08;5.17;;;;;;;-0.14;73.27;98084.39;1710129;84;21043;-75
2022/04/12 04:51:31;;;;;;;11.12;5.00;;;;;;;-0.02;73.10;98088.91;1688769;84;21049;-75
2022/04/12 04:53:58;;;;;;;10.18;5.15;;;;;;;0.06;72.88;98089.90;1686514;85;21000;-75
2022/04/12 04:56:28;;;;;;;9.98;5.25;;;;;;;0.17;72.93;98086.56;1686381;85;21004;-75
2022/04/12 04:58:55;;;;;;;8.43;4.53;;;;;;;0.26;72.59;98091.45;1716274;83;21004;-75
2022/04/12 05:01:22;;;;;;;7.95;4.72;;;;;;;0.38;72.65;98091.19;1666727;84;21011;-75
2022/04/12 05:03:50;;;;;;;7.53;5.03;;;;;;;0.49;72.48;98097.41;1653275;87;21008;-75
2022/04/12 05:06:17;;;;;;;8.25;5.10;;;;;;;0.61;72.21;98104.92;1663849;85;21024;-75
2022/04/12 05:08:44;;;;;;;8.75;4.45;;;;;;;0.72;72.15;98107.25;1679700;85;21019;-75
2022/04/12 05:11:11;;;;;;;9.08;4.60;;;;;;;0.84;71.49;98109.13;1713800;83;21001;-75
2022/04/12 05:13:38;;;;;;;8.13;4.65;;;;;;;0.96;71.16;98112.72;1707921;84;21034;-75
2022/04/12 05:16:05;;;;;;;8.43;5.10;;;;;;;1.06;71.00;98114.57;1722850;83;21071;-75
2022/04/12 05:18:31;;;;;;;9.23;4.67;;;;;;;1.17;70.50;98110.77;1708352;84;21034;-76
2022/04/12 05:20:58;;;;;;;11.48;5.42;;;;;;;1.25;69.46;98105.17;1706266;83;21044;-76
2022/04/12 05:23:24;;;;;;;9.93;5.30;;;;;;;1.30;69.24;98114.38;1694340;84;20988;-76
2022/04/12 05:25:53;;;;;;;10.13;6.20;;;;;;;1.37;69.21;98110.09;1694466;85;20965;-76
2022/04/12 05:28:22;;;;;;;13.00;6.20;;;;;;;1.44;68.97;98110.16;1704173;83;21016;-76
2022/04/12 05:30:48;;;;;;;11.83;6.50;;;;;;;1.44;68.43;98108.84;1717107;83;21390;-76
2022/04/12 05:33:15;;;;;;;17.23;6.47;;;;;;;1.47;68.42;98109.72;1693901;83;21035;-75
2022/04/12 05:35:42;;;;;;;15.50;6.80;;;;;;;1.54;68.22;98116.77;1722843;83;21477;-75
2022/04/12 05:38:09;;;;;;;9.13;5.80;;;;;;;1.54;68.40;98118.93;1720701;83;20991;-75
2022/04/12 05:40:37;;;;;;;10.88;7.28;;;;;;;1.53;68.34;98119.80;1687129;84;21052;-74
2022/04/12 05:43:07;;;;;;;11.22;6.45;;;;;;;1.53;68.27;98124.17;1698338;83;21055;-74
2022/04/12 05:45:33;;;;;;;11.83;6.47;;;;;;;1.52;68.60;98122.39;1720480;83;21009;-75
2022/04/12 05:48:00;;;;;;;13.03;6.58;;;;;;;1.52;68.69;98120.67;1703141;84;21012;-75
2022/04/12 05:50:28;;;;;;;12.95;6.85;;;;;;;1.54;68.87;98120.69;1696704;83;20981;-75
2022/04/12 05:52:56;;;;;;;12.13;6.78;;;;;;;1.51;68.73;98118.92;1702122;83;21043;-75
2022/04/12 05:55:25;;;;;;;12.85;7.05;;;;;;;1.49;69.01;98125.85;1702393;84;20984;-75
2022/04/12 05:57:56;;;;;;;13.70;7.35;;;;;;;1.53;69.07;98131.55;1702913;84;21020;-75
2022/04/12 06:00:26;;;;;;;13.35;7.00;;;;;;;1.58;69.25;98130.30;1674137;83;21004;-75
2022/04/12 06:02:55;;;;;;;13.20;7.37;;;;;;;1.64;69.20;98129.46;1687807;84;21071;-76
2022/04/12 06:05:24;;;;;;;13.35;7.53;;;;;;;1.69;69.21;98120.81;1703326;84;21133;-75
2022/04/12 06:07:51;;;;;;;13.83;7.17;;;;;;;1.76;69.17;98114.32;1693395;84;21075;-75
2022/04/12 06:10:20;;;;;;;13.78;7.20;;;;;;;1.82;68.94;98120.47;1678521;84;21011;-75
2022/04/12 06:12:48;;;;;;;14.73;7.40;;;;;;;1.86;68.79;98121.36;1707755;83;21003;-75
2022/04/12 06:15:14;;;;;;;15.25;7.37;;;;;;;1.92;68.64;98128.38;1699987;84;21500;-75
2022/04/12 06:17:42;;;;;;;14.73;6.95;;;;;;;1.95;68.66;98127.97;1686344;85;21020;-75
2022/04/12 06:20:16;;;;;;;18.65;7.90;;;;;;;1.99;68.31;98130.16;1694254;84;20986;-75
2022/04/12 06:22:43;;;;;;;14.93;8.10;;;;;;;2.06;68.53;98128.47;1723138;83;21016;-75
2022/04/12 06:25:14;;;;;;;14.43;6.67;;;;;;;2.10;68.27;98129.83;1680182;84;21058;-75
2022/04/12 06:27:50;;;;;;;14.25;7.55;;;;;;;2.13;67.91;98134.20;1703671;83;21070;-75
2022/04/12 06:30:25;;;;;;;14.55;8.05;;;;;;;2.19;67.93;98130.73;1696893;84;21424;-75
2022/04/12 06:32:52;;;;;;;12.58;6.47;;;;;;;2.23;67.95;98136.42;1695600;84;21036;-75
2022/04/12 06:35:20;;;;;;;13.45;7.50;;;;;;;2.28;67.90;98138.63;1702738;84;21056;-75
2022/04/12 06:37:52;;;;;;;11.55;6.60;;;;;;;2.35;67.88;98144.78;1688531;84;20999;-75
2022/04/12 06:40:20;;;;;;;11.28;6.72;;;;;;;2.42;67.78;98137.42;1708466;84;21420;-75
2022/04/12 06:42:49;;;;;;;13.00;6.80;;;;;;;2.49;67.99;98135.27;1686722;84;21469;-75
2022/04/12 06:45:16;;;;;;;9.68;6.17;;;;;;;2.57;68.01;98144.46;1703095;84;21043;-75
2022/04/12 06:47:43;;;;;;;10.80;6.37;;;;;;;2.66;67.59;98135.80;1685233;84;21024;-75
2022/04/12 06:50:11;;;;;;;10.98;6.47;;;;;;;2.77;67.27;98134.09;1723355;83;21000;-75
2022/04/12 06:52:39;;;;;;;10.72;5.50;;;;;;;2.94;67.30;98146.81;1722512;82;21004;-75
2022/04/12 06:55:07;;;;;;;11.43;6.62;;;;;;;3.12;65.56;98140.76;1722987;83;21036;-75
2022/04/12 06:57:36;;;;;;;12.25;6.50;;;;;;;3.29;65.32;98139.03;1722463;83;21465;-76
2022/04/12 07:00:07;;;;;;;11.60;6.80;;;;;;;3.46;65.56;98131.66;1723142;83;20987;-76
2022/04/12 07:02:34;;;;;;;13.78;6.95;;;;;;;3.64;65.89;98139.97;1723187;83;21100;-76
2022/04/12 07:05:03;;;;;;;10.82;5.58;;;;;;;3.86;66.01;98133.86;1721660;83;21008;-76
2022/04/12 07:07:30;;;;;;;10.53;5.90;;;;;;;4.02;65.97;98127.72;1720353;82;21059;-75
2022/04/12 07:09:59;;;;;;;8.40;4.80;;;;;;;4.19;65.61;98130.78;1721605;83;21003;-75
2022/04/12 07:12:26;;;;;;;7.67;4.53;;;;;;;4.33;62.62;98125.03;1721406;83;21025;-75
2022/04/12 07:14:53;;;;;;;8.05;4.47;;;;;;;4.51;62.69;98128.50;1717284;83;20976;-75
2022/04/12 07:17:20;;;;;;;6.03;4.00;;;;;;;4.70;61.96;98116.17;1720659;83;21616;-75
2022/04/12 07:19:47;;;;;;;7.28;3.83;;;;;;;4.96;60.71;98120.45;1717310;83;20984;-75
2022/04/12 07:22:14;;;;;;;5.90;3.90;;;;;;;5.09;60.85;98122.58;1696039;84;21075;-75
2022/04/12 07:24:40;;;;;;;6.83;3.85;;;;;;;5.22;59.29;98129.06;1698059;84;20996;-75
2022/04/12 07:27:07;;;;;;;5.83;3.85;;;;;;;5.35;58.53;98128.57;1698134;84;21564;-75
2022/04/12 07:29:34;;;;;;;7.15;3.92;;;;;;;5.47;57.67;98131.10;1690464;84;20992;-75
2022/04/12 07:32:01;;;;;;;6.05;4.30;;;;;;;5.63;59.04;98133.19;1692472;84;21468;-75
2022/04/12 07:34:28;;;;;;;9.05;3.98;;;;;;;5.78;56.46;98132.18;1685606;84;21043;-75
2022/04/12 07:36:54;;;;;;;8.43;5.35;;;;;;;5.92;58.40;98127.25;1686392;84;21104;-75
2022/04/12 07:39:23;;;;;;;33.10;17.65;;;;;;;6.10;57.98;98127.56;1686234;85;21027;-75
2022/04/12 07:41:51;;;;;;;11.28;4.92;;;;;;;6.23;57.94;98129.62;1686385;84;21120;-75
2022/04/12 07:44:19;;;;;;;5.92;3.80;;;;;;;6.32;57.69;98121.64;1685284;84;21429;-75
2022/04/12 07:46:47;;;;;;;6.40;3.50;;;;;;;6.41;58.26;98125.95;1685526;84;21504;-75
2022/04/12 07:49:14;;;;;;;7.92;4.03;;;;;;;6.51;57.71;98128.03;1687524;84;21495;-75
2022/04/12 07:51:41;;;;;;;9.05;4.05;;;;;;;6.62;57.65;98132.30;1687651;84;21047;-75
2022/04/12 07:54:09;;;;;;;5.40;3.20;;;;;;;6.73;54.86;98132.61;1685908;84;20991;-75
2022/04/12 07:56:36;;;;;;;6.10;3.22;;;;;;;6.89;55.19;98131.09;1687627;84;21444;-74
2022/04/12 07:59:03;;;;;;;5.22;2.83;;;;;;;6.97;50.85;98131.88;1687857;84;21031;-75
2022/04/12 08:01:30;;;;;;;4.83;2.00;;;;;;;7.00;49.22;98130.97;1695126;84;21508;-75
2022/04/12 08:03:56;;;;;;;4.22;2.22;;;;;;;7.02;49.26;98133.59;1690799;84;20991;-75
2022/04/12 08:06:24;;;;;;;3.30;2.30;;;;;;;7.06;51.92;98130.88;1686580;84;21063;-75
2022/04/12 08:08:51;;;;;;;3.52;1.75;;;;;;;7.16;52.16;98126.80;1677096;84;21056;-75
2022/04/12 08:11:17;;;;;;;3.02;1.90;;;;;;;7.24;52.78;98120.99;1680562;84;21514;-75
2022/04/12 08:13:45;;;;;;;2.52;1.80;;;;;;;7.36;48.74;98126.54;1679927;84;21000;-75
2022/04/12 08:16:15;;;;;;;3.35;1.98;;;;;;;7.45;46.08;98121.13;1691457;84;21438;-75
2022/04/12 08:18:44;;;;;;;2.83;1.80;;;;;;;7.49;45.73;98116.67;1685255;84;21032;-75
2022/04/12 08:21:10;;;;;;;2.22;1.57;;;;;;;7.53;47.23;98114.42;1680558;85;21110;-75
2022/04/12 08:23:37;;;;;;;2.75;1.60;;;;;;;7.66;48.91;98119.94;1680060;84;21037;-75
2022/04/12 08:26:04;;;;;;;2.67;1.80;;;;;;;7.72;44.29;98114.99;1680018;84;21452;-75
2022/04/12 08:28:30;;;;;;;2.30;1.82;;;;;;;7.76;45.77;98111.41;1681482;84;21013;-76
2022/04/12 08:30:57;;;;;;;3.75;1.80;;;;;;;7.92;48.06;98111.15;1685500;84;20996;-75
2022/04/12 08:33:25;;;;;;;3.37;1.80;;;;;;;7.97;46.27;98105.34;1680279;84;21627;-76
2022/04/12 08:35:52;;;;;;;2.67;2.00;;;;;;;8.02;45.96;98114.05;1686929;84;20975;-75
2022/04/12 08:38:19;;;;;;;3.33;2.08;;;;;;;8.00;44.08;98107.94;1684562;84;21035;-75
2022/04/12 08:40:47;;;;;;;3.22;2.12;;;;;;;8.00;45.71;98104.42;1681792;84;21064;-75
2022/04/12 08:43:15;;;;;;;3.60;1.80;;;;;;;8.08;47.30;98106.48;1676411;84;21012;-75
2022/04/12 08:45:45;;;;;;;4.42;1.95;;;;;;;8.02;43.24;98107.92;1680175;84;21008;-76
2022/04/12 08:48:12;;;;;;;11.73;7.97;;;;;;;8.06;46.11;98101.70;1680155;84;21461;-75
2022/04/12 08:50:39;;;;;;;5.12;2.42;;;;;;;8.11;47.00;98102.48;1680287;84;20972;-76
2022/04/12 08:53:09;;;;;;;3.75;2.33;;;;;;;8.21;47.06;98094.40;1679458;84;21028;-76
2022/04/12 08:55:36;;;;;;;5.70;2.37;;;;;;;8.35;47.07;98100.73;1680308;84;21071;-76
2022/04/12 08:58:03;;;;;;;3.55;1.65;;;;;;;8.49;46.25;98102.66;1679934;84;21041;-76
2022/04/12 09:00:29;;;;;;;3.55;1.70;;;;;;;8.48;40.94;98098.28;1680223;84;21066;-76
2022/04/12 09:02:59;;;;;;;2.72;1.72;;;;;;;8.51;43.84;98102.17;1679597;84;22236;-75
2022/04/12 09:05:27;;;;;;;3.08;1.57;;;;;;;8.57;41.33;98103.86;1680472;84;20968;-76
2022/04/12 09:07:54;;;;;;;2.70;1.40;;;;;;;8.69;44.94;98104.07;1673849;84;21510;-76
2022/04/12 09:10:26;;;;;;;1.60;1.40;;;;;;;8.75;44.86;98098.66;1680089;84;21068;-77
2022/04/12 09:12:56;;;;;;;2.17;1.40;;;;;;;8.76;41.36;98104.34;1677935;84;21032;-78
2022/04/12 09:15:23;;;;;;;4.47;1.65;;;;;;;8.68;43.24;98101.02;1677334;84;21517;-77
2022/04/12 09:17:50;;;;;;;2.70;1.60;;;;;;;8.65;43.55;98099.30;1682693;84;21449;-77
2022/04/12 09:20:21;;;;;;;2.85;1.60;;;;;;;8.56;43.06;98089.77;1679804;84;20977;-77
2022/04/12 09:22:52;;;;;;;3.83;1.45;;;;;;;8.56;43.18;98087.13;1679608;84;21016;-77
2022/04/12 09:25:19;;;;;;;3.12;1.25;;;;;;;8.62;40.49;98076.91;1680311;84;21012;-77
2022/04/12 09:27:49;;;;;;;6.78;1.52;;;;;;;8.78;42.42;98062.05;1680135;84;21016;-77
2022/04/12 09:30:15;;;;;;;2.50;1.25;;;;;;;9.04;43.14;98066.77;1678725;84;21067;-76
2022/04/12 09:32:48;;;;;;;1.92;1.67;;;;;;;9.13;38.46;98074.94;1679743;84;21007;-78
2022/04/12 09:35:16;;;;;;;2.70;1.80;;;;;;;9.02;38.12;98088.86;1680142;84;21525;-76
2022/04/12 09:37:45;;;;;;;4.33;2.40;;;;;;;8.92;40.42;98070.55;1682568;84;21079;-76
2022/04/12 09:40:17;;;;;;;8.38;2.47;;;;;;;8.93;41.74;98069.64;1680094;84;21060;-76
2022/04/12 09:42:50;;;;;;;3.40;1.77;;;;;;;8.94;42.30;98059.51;1679577;84;21007;-75
2022/04/12 09:45:24;;;;;;;4.90;1.75;;;;;;;8.98;41.80;98077.02;1680344;84;20973;-76
2022/04/12 09:47:54;;;;;;;2.47;1.70;;;;;;;9.03;39.83;98067.67;1682495;84;21437;-76
2022/04/12 09:50:22;;;;;;;3.55;1.80;;;;;;;9.07;39.92;98066.71;1680395;84;21522;-76
2022/04/12 09:53:02;;;;;;;5.47;1.80;;;;;;;9.12;41.07;98065.27;1680041;84;21047;-77
2022/04/12 09:55:42;;;;;;;2.90;1.70;;;;;;;9.13;40.79;98055.58;1680014;84;21020;-78
2022/04/12 09:58:17;;;;;;;5.30;3.02;;;;;;;9.26;39.34;98047.75;1679703;84;20977;-77
2022/04/12 10:00:47;;;;;;;5.80;3.45;;;;;;;9.58;41.11;98047.45;1679961;84;21075;-76
2022/04/12 10:03:17;;;;;;;2.60;1.90;;;;;;;9.84;41.03;98058.30;1676032;84;21076;-78
2022/04/12 10:05:45;;;;;;;2.85;1.70;;;;;;;9.89;38.48;98047.98;1680413;84;21043;-77
2022/04/12 10:08:13;;;;;;;3.67;1.50;;;;;;;9.91;37.97;98053.24;1695661;84;20986;-78
2022/04/12 10:10:44;;;;;;;4.47;1.82;;;;;;;10.00;38.34;98038.89;1702882;84;22215;-78
2022/04/12 10:13:14;;;;;;;3.33;1.77;;;;;;;10.10;38.89;98040.85;1702909;84;21356;-78
2022/04/12 10:15:41;;;;;;;2.20;1.50;;;;;;;10.25;39.77;98045.73;1703037;84;20998;-78
2022/04/12 10:18:08;;;;;;;2.25;1.50;;;;;;;10.37;39.42;98035.69;1703186;84;21006;-77
2022/04/12 10:20:36;;;;;;;2.67;1.60;;;;;;;10.31;38.44;98044.70;1701313;84;21395;-78
2022/04/12 10:23:03;;;;;;;3.40;1.77;;;;;;;10.17;36.88;98039.76;1702591;84;20974;-78
2022/04/12 10:25:30;;;;;;;4.17;2.50;;;;;;;10.21;39.12;98033.95;1702748;84;21052;-79
2022/04/12 10:28:00;;;;;;;3.72;1.67;;;;;;;10.27;38.32;98029.35;1698075;84;20991;-83
2022/04/12 10:30:29;;;;;;;3.92;1.92;;;;;;;10.30;35.91;98023.95;1674736;86;21509;-81
2022/04/12 10:33:08;;;;;;;2.83;1.80;;;;;;;10.39;36.36;98023.28;1697930;84;20992;-84
2022/04/12 10:35:54;;;;;;;2.55;2.02;;;;;;;10.56;34.76;98018.38;1701748;84;21081;-82
2022/04/12 10:38:27;;;;;;;2.50;1.95;;;;;;;10.57;35.22;98021.91;1701397;84;20981;-79
2022/04/12 10:40:56;;;;;;;4.60;2.10;;;;;;;10.63;35.85;98014.25;1678439;84;21001;-80
2022/04/12 10:43:33;;;;;;;2.50;1.85;;;;;;;10.95;35.64;98010.63;1703043;84;20950;-80
2022/04/12 10:45:58;;;;;;;4.15;2.00;;;;;;;11.45;36.25;98014.36;1702673;84;20965;-81
2022/04/12 10:48:32;;;;;;;4.55;1.95;;;;;;;11.80;34.98;98007.92;1703822;84;21009;-81
2022/04/12 10:51:04;;;;;;;4.08;2.00;;;;;;;13.00;34.15;98003.60;1704343;84;20946;-81
2022/04/12 10:53:42;;;;;;;5.95;1.90;;;;;;;13.13;31.85;97994.66;1699676;84;21035;-82
2022/04/12 10:56:13;;;;;;;3.70;1.90;;;;;;;13.46;32.98;98000.88;1702907;84;20994;-81
2022/04/12 10:58:43;;;;;;;2.17;1.70;;;;;;;12.87;32.96;98009.38;1702485;84;21031;-81
2022/04/12 11:01:15;;;;;;;3.50;2.00;;;;;;;12.67;33.25;98009.69;1702978;84;20997;-82
2022/04/12 11:03:48;;;;;;;3.83;2.15;;;;;;;12.58;32.09;98003.87;1704937;84;20971;-81
2022/04/12 11:06:27;;;;;;;2.90;1.85;;;;;;;13.99;31.46;97990.69;1697809;84;20977;-81
2022/04/12 11:09:15;;;;;;;2.42;1.85;;;;;;;15.18;26.67;97991.56;1682286;84;21057;-83
2022/04/12 11:11:41;;;;;;;2.85;2.08;;;;;;;16.02;27.54;97989.25;1700811;84;21018;-85
2022/04/12 11:14:32;;;;;;;3.62;2.08;;;;;;;16.24;25.82;97982.30;1693272;84;21052;-86
2022/04/12 11:17:05;;;;;;;3.35;1.90;;;;;;;15.37;29.28;97976.83;1701494;84;21012;-82
2022/04/12 11:19:49;;;;;;;2.37;1.80;;;;;;;14.85;29.14;97987.77;1718052;83;21493;-80
2022/04/12 11:22:17;;;;;;;3.47;1.98;;;;;;;14.46;29.93;97988.20;1701163;84;21055;-80
2022/04/12 11:25:14;;;;;;;4.05;2.30;;;;;;;13.57;28.23;97984.02;1692315;83;21107;-83
2022/04/12 11:27:40;;;;;;;2.50;2.20;;;;;;;13.94;29.62;97976.25;1682300;84;21492;-83
2022/04/12 11:30:13;;;;;;;2.58;1.82;;;;;;;13.66;29.77;97986.75;1683653;84;21011;-81
2022/04/12 11:32:41;;;;;;;3.52;2.30;;;;;;;13.36;30.80;97987.55;1731884;83;21445;-82
2022/04/12 11:35:10;;;;;;;2.83;2.02;;;;;;;13.49;30.93;97983.95;1687477;84;21100;-81
2022/04/12 11:37:41;;;;;;;3.30;1.90;;;;;;;14.07;30.39;97983.23;1706489;83;21095;-81
2022/04/12 11:40:09;;;;;;;2.35;1.57;;;;;;;14.18;30.44;97989.88;1707215;84;21265;-79
2022/04/12 11:42:36;;;;;;;1.85;1.60;;;;;;;13.98;27.62;97986.30;1727324;82;21751;-81